createdAt,value
2018-05-02T00:02:07.797Z,92015.25
2018-05-02T00:04:34.331Z,92016.35
2018-05-02T00:07:00.656Z,92019.14
2018-05-02T00:09:26.926Z,92015.25
2018-05-02T00:11:53.186Z,92016.36
2018-05-02T00:14:22.712Z,92019.49
2018-05-02T00:16:48.966Z,92014.11
2018-05-02T00:19:15.242Z,92013.03
2018-05-02T00:21:45.085Z,92015.30
2018-05-02T00:24:11.391Z,92013.61
2018-05-02T00:26:37.663Z,92019.70
2018-05-02T00:29:07.145Z,92020.89
2018-05-02T00:31:33.423Z,92015.33
2018-05-02T00:33:59.742Z,92009.16
2018-05-02T00:36:26.043Z,92010.35
2018-05-02T00:38:52.329Z,92004.98
2018-05-02T00:41:18.625Z,92002.95
2018-05-02T00:43:48.208Z,92008.52
2018-05-02T00:46:14.474Z,92009.10
2018-05-02T00:48:52.988Z,92008.59
2018-05-02T00:51:19.259Z,92009.86
2018-05-02T00:53:45.541Z,92009.23
2018-05-02T00:56:14.975Z,92011.05
2018-05-02T00:58:41.295Z,92004.98
2018-05-02T01:01:07.558Z,92009.30
2018-05-02T01:03:34.026Z,92013.33
2018-05-02T01:06:00.284Z,92009.06
2018-05-02T01:08:26.548Z,92009.09
2018-05-02T01:10:52.853Z,92010.29
2018-05-02T01:13:19.148Z,92006.05
2018-05-02T01:15:45.457Z,92007.95
2018-05-02T01:18:11.745Z,92009.36
2018-05-02T01:20:38.014Z,92006.48
2018-05-02T01:23:04.270Z,92006.11
2018-05-02T01:25:33.758Z,92003.98
2018-05-02T01:28:00.027Z,91995.97
2018-05-02T01:30:26.287Z,92004.00
2018-05-02T01:32:55.710Z,91999.25
2018-05-02T01:35:21.965Z,92000.52
2018-05-02T01:37:48.230Z,91991.72
2018-05-02T01:40:14.538Z,91992.66
2018-05-02T01:42:40.795Z,91992.70
2018-05-02T01:45:07.092Z,91989.39
2018-05-02T01:47:33.806Z,91986.76
2018-05-02T01:50:00.067Z,91989.11
2018-05-02T01:52:26.348Z,91996.50
2018-05-02T01:54:55.880Z,91994.08
2018-05-02T01:57:22.138Z,91994.16
2018-05-02T01:59:48.401Z,91994.42
2018-05-02T02:02:14.702Z,91986.57
2018-05-02T02:04:41.064Z,91991.00
2018-05-02T02:07:07.329Z,91988.95
2018-05-02T02:09:36.727Z,91987.98
2018-05-02T02:12:03.047Z,91993.16
2018-05-02T02:14:29.374Z,91988.70
2018-05-02T02:16:55.707Z,91984.02
2018-05-02T02:19:21.987Z,91983.05
2018-05-02T02:21:48.245Z,91986.35
2018-05-02T02:24:17.711Z,91992.16
2018-05-02T02:26:43.974Z,91995.72
2018-05-02T02:29:10.239Z,91997.80
2018-05-02T02:31:36.605Z,92002.53
2018-05-02T02:34:02.958Z,91999.69
2018-05-02T02:36:29.199Z,91999.71
2018-05-02T02:38:58.748Z,92002.16
2018-05-02T02:41:25.014Z,92002.53
2018-05-02T02:43:51.298Z,92008.66
2018-05-02T02:46:20.829Z,92002.67
2018-05-02T02:48:47.125Z,92005.48
2018-05-02T02:51:13.397Z,92009.94
2018-05-02T02:53:39.765Z,92006.05
2018-05-02T02:56:06.018Z,92007.34
2018-05-02T02:58:32.285Z,92010.70
2018-05-02T03:01:01.876Z,92005.94
2018-05-02T03:03:28.160Z,92013.73
2018-05-02T03:05:57.611Z,92012.17
2018-05-02T03:08:27.086Z,92017.00
2018-05-02T03:10:53.302Z,92015.21
2018-05-02T03:13:19.557Z,92020.55
2018-05-02T03:15:49.063Z,92017.59
2018-05-02T03:18:15.323Z,92022.35
2018-05-02T03:20:41.615Z,92021.36
2018-05-02T03:23:14.304Z,92020.38
2018-05-02T03:25:40.583Z,92020.28
2018-05-02T03:28:06.904Z,92021.84
2018-05-02T03:30:36.283Z,92021.13
2018-05-02T03:33:02.563Z,92023.03
2018-05-02T03:35:28.827Z,92021.41
2018-05-02T03:37:55.223Z,92025.92
2018-05-02T03:40:21.593Z,92023.65
2018-05-02T03:42:47.850Z,92021.70
2018-05-02T03:45:14.163Z,92028.31
2018-05-02T03:47:40.465Z,92023.77
2018-05-02T03:50:06.781Z,92032.56
2018-05-02T03:52:33.074Z,92032.79
2018-05-02T03:54:59.325Z,92037.92
2018-05-02T03:57:25.589Z,92036.45
2018-05-02T04:00:07.243Z,92038.75
2018-05-02T04:02:45.606Z,92040.70
2018-05-02T04:05:27.109Z,92031.47
2018-05-02T04:07:53.480Z,92031.80
2018-05-02T04:10:19.758Z,92034.13
2018-05-02T04:12:46.111Z,92033.70
2018-05-02T04:15:12.390Z,92036.00
2018-05-02T04:17:38.668Z,92037.18
2018-05-02T04:20:05.024Z,92038.16
2018-05-02T04:22:31.299Z,92035.37
2018-05-02T04:24:57.570Z,92038.25
2018-05-02T04:27:27.166Z,92040.64
2018-05-02T04:29:53.432Z,92040.90
2018-05-02T04:32:22.984Z,92048.63
2018-05-02T04:34:49.304Z,92045.45
2018-05-02T04:37:15.578Z,92043.08
2018-05-02T04:39:41.863Z,92043.71
2018-05-02T04:42:08.240Z,92041.80
2018-05-02T04:44:40.753Z,92048.59
2018-05-02T04:47:07.097Z,92039.76
2018-05-02T04:49:33.391Z,92042.88
2018-05-02T04:51:59.646Z,92039.81
2018-05-02T04:54:25.917Z,92043.83
2018-05-02T04:56:52.269Z,92043.14
2018-05-02T04:59:18.555Z,92035.80
2018-05-02T05:01:44.844Z,92038.62
2018-05-02T05:04:11.236Z,92038.55
2018-05-02T05:06:37.616Z,92037.48
2018-05-02T05:09:07.093Z,92042.13
2018-05-02T05:11:36.481Z,92034.66
2018-05-02T05:14:05.786Z,92036.31
2018-05-02T05:16:32.054Z,92036.24
2018-05-02T05:19:01.629Z,92031.67
2018-05-02T05:21:27.899Z,92038.94
2018-05-02T05:23:54.177Z,92029.65
2018-05-02T05:26:20.527Z,92029.38
2018-05-02T05:28:46.801Z,92026.57
2018-05-02T05:31:13.071Z,92022.92
2018-05-02T05:33:39.379Z,92020.37
2018-05-02T05:36:05.671Z,92022.53
2018-05-02T05:38:31.961Z,92024.08
2018-05-02T05:41:01.334Z,92020.77
2018-05-02T05:43:27.646Z,92018.06
2018-05-02T05:45:53.924Z,92018.66
2018-05-02T05:48:23.437Z,92021.95
2018-05-02T05:50:49.715Z,92020.75
2018-05-02T05:53:16.006Z,92022.54
2018-05-02T05:55:42.320Z,92028.66
2018-05-02T05:58:08.604Z,92022.08
2018-05-02T06:00:34.886Z,92026.75
2018-05-02T06:03:04.286Z,92025.61
2018-05-02T06:05:30.574Z,92022.25
2018-05-02T06:07:56.858Z,92019.09
2018-05-02T06:10:26.547Z,92023.42
2018-05-02T06:12:52.824Z,92019.09
2018-05-02T06:15:19.117Z,92020.17
2018-05-02T06:17:48.622Z,92018.80
2018-05-02T06:20:14.892Z,92014.09
2018-05-02T06:22:41.160Z,92011.13
2018-05-02T06:25:10.573Z,92013.23
2018-05-02T06:27:36.848Z,92006.72
2018-05-02T06:30:03.178Z,92009.54
2018-05-02T06:32:32.758Z,92009.92
2018-05-02T06:34:59.026Z,92003.50
2018-05-02T06:37:25.287Z,92005.49
2018-05-02T06:39:54.745Z,91998.52
2018-05-02T06:42:21.030Z,92000.77
2018-05-02T06:44:47.294Z,91998.80
2018-05-02T06:47:16.895Z,92000.92
2018-05-02T06:49:43.180Z,91997.66
2018-05-02T06:52:09.453Z,91998.07
2018-05-02T06:54:38.971Z,92002.00
2018-05-02T06:57:05.249Z,91989.16
2018-05-02T06:59:31.522Z,91989.52
2018-05-02T07:01:57.834Z,91987.65
2018-05-02T07:04:24.118Z,91989.23
2018-05-02T07:06:50.401Z,91984.69
2018-05-02T07:09:20.018Z,91983.56
2018-05-02T07:11:49.421Z,91978.34
2018-05-02T07:17:06.295Z,91984.64
2018-05-02T07:19:32.557Z,91984.35
2018-05-02T07:21:58.842Z,91978.43
2018-05-02T07:24:31.591Z,91970.76
2018-05-02T07:29:49.439Z,91974.20
2018-05-02T07:32:15.805Z,91972.31
2018-05-02T07:34:42.173Z,91967.16
2018-05-02T07:37:11.903Z,91968.06
2018-05-02T07:39:38.395Z,91969.30
2018-05-02T07:42:04.837Z,91965.48
2018-05-02T07:44:31.217Z,91963.77
2018-05-02T07:47:16.333Z,91964.84
2018-05-02T07:49:45.699Z,91958.81
2018-05-02T07:52:11.979Z,91962.25
2018-05-02T07:54:38.246Z,91960.64
2018-05-02T07:57:07.737Z,91953.34
2018-05-02T07:59:34.011Z,91955.27
2018-05-02T08:02:00.288Z,91952.58
2018-05-02T08:04:29.827Z,91950.77
2018-05-02T08:06:56.108Z,91950.22
2018-05-02T08:09:22.362Z,91941.51
2018-05-02T08:11:51.722Z,91950.48
2018-05-02T08:14:18.072Z,91938.55
2018-05-02T08:16:44.347Z,91934.07
2018-05-02T08:19:13.949Z,91936.91
2018-05-02T08:21:40.215Z,91937.30
2018-05-02T08:24:06.491Z,91932.13
2018-05-02T08:26:32.791Z,91925.85
2018-05-02T08:28:59.052Z,91922.47
2018-05-02T08:31:25.311Z,91923.34
2018-05-02T08:33:54.702Z,91914.56
2018-05-02T08:36:20.965Z,91914.09
2018-05-02T08:38:47.321Z,91912.64
2018-05-02T08:41:13.618Z,91911.25
2018-05-02T08:43:39.898Z,91910.86
2018-05-02T08:46:06.195Z,91907.20
2018-05-02T08:48:32.499Z,91902.66
2018-05-02T08:50:58.793Z,91902.58
2018-05-02T08:53:25.073Z,91901.23
2018-05-02T08:55:54.456Z,91900.05
2018-05-02T08:58:20.715Z,91899.53
2018-05-02T09:00:46.983Z,91900.30
2018-05-02T09:03:13.737Z,91901.41
2018-05-02T09:05:40.010Z,91896.96
2018-05-02T09:08:06.289Z,91896.94
2018-05-02T09:10:35.812Z,91892.41
2018-05-02T09:13:02.085Z,91890.75
2018-05-02T09:15:28.536Z,91887.38
2018-05-02T09:17:54.784Z,91880.59
2018-05-02T09:20:21.068Z,91878.39
2018-05-02T09:22:47.344Z,91873.45
2018-05-02T09:25:16.879Z,91867.38
2018-05-02T09:27:43.185Z,91871.17
2018-05-02T09:30:09.551Z,91859.94
2018-05-02T09:32:38.939Z,91862.42
2018-05-02T09:35:05.248Z,91862.81
2018-05-02T09:37:31.527Z,91857.58
2018-05-02T09:39:57.883Z,91859.56
2018-05-02T09:42:24.142Z,91857.82
2018-05-02T09:44:50.400Z,91857.73
2018-05-02T09:47:19.690Z,91852.44
2018-05-02T09:49:45.955Z,91854.95
2018-05-02T09:52:12.243Z,91841.02
2018-05-02T09:54:38.547Z,91845.00
2018-05-02T09:57:04.837Z,91840.55
2018-05-02T09:59:31.114Z,91835.84
2018-05-02T10:02:03.103Z,91838.05
2018-05-02T10:04:29.374Z,91831.95
2018-05-02T10:06:55.684Z,91821.64
2018-05-02T10:09:25.272Z,91822.09
2018-05-02T10:11:51.537Z,91826.62
2018-05-02T10:14:17.995Z,91819.73
2018-05-02T10:16:45.557Z,91828.39
2018-05-02T10:19:11.929Z,91822.50
2018-05-02T10:21:38.324Z,91827.31
2018-05-02T10:24:07.881Z,91817.23
2018-05-02T10:26:34.324Z,91822.81
2018-05-02T10:29:00.719Z,91819.67
2018-05-02T10:31:27.220Z,91815.78
2018-05-02T10:33:53.626Z,91820.24
2018-05-02T10:36:20.022Z,91816.05
2018-05-02T10:38:49.587Z,91819.66
2018-05-02T10:41:15.904Z,91813.94
2018-05-02T10:43:45.005Z,91819.05
2018-05-02T10:46:14.685Z,91809.28
2018-05-02T10:48:40.979Z,91811.22
2018-05-02T10:51:07.255Z,91812.84
2018-05-02T10:53:36.995Z,91815.19
2018-05-02T10:56:03.390Z,91813.80
2018-05-02T10:58:29.634Z,91813.98
2018-05-02T11:00:59.123Z,91805.16
2018-05-02T11:03:25.524Z,91802.70
2018-05-02T11:05:51.806Z,91816.13
2018-05-02T11:08:21.361Z,91808.80
2018-05-02T11:10:47.699Z,91806.69
2018-05-02T11:13:14.007Z,91799.44
2018-05-02T11:15:43.432Z,91797.53
2018-05-02T11:18:10.019Z,91794.77
2018-05-02T11:20:36.293Z,91791.41
2018-05-02T11:23:02.694Z,91787.19
2018-05-02T11:25:32.455Z,91788.11
2018-05-02T11:27:58.747Z,91778.48
2018-05-02T11:30:28.316Z,91777.73
2018-05-02T11:32:54.605Z,91773.25
2018-05-02T11:35:20.900Z,91766.97
2018-05-02T11:37:47.257Z,91765.95
2018-05-02T11:40:13.534Z,91767.90
2018-05-02T11:42:39.807Z,91769.79
2018-05-02T11:45:06.138Z,91760.47
2018-05-02T11:47:32.441Z,91758.33
2018-05-02T11:49:58.705Z,91752.64
2018-05-02T11:52:28.355Z,91757.32
2018-05-02T11:54:54.634Z,91764.28
2018-05-02T11:57:20.925Z,91772.23
2018-05-02T11:59:47.285Z,91767.35
2018-05-02T12:02:13.576Z,91767.16
2018-05-02T12:04:39.850Z,91760.79
2018-05-02T12:07:06.172Z,91767.44
2018-05-02T12:09:32.443Z,91755.32
2018-05-02T12:11:58.713Z,91750.83
2018-05-02T12:14:28.098Z,91748.17
2018-05-02T12:16:54.379Z,91741.09
2018-05-02T12:19:20.775Z,91744.24
2018-05-02T12:21:47.208Z,91747.70
2018-05-02T12:24:13.489Z,91747.02
2018-05-02T12:26:39.769Z,91739.41
2018-05-02T12:29:09.151Z,91734.88
2018-05-02T12:31:35.449Z,91732.45
2018-05-02T12:34:01.769Z,91730.91
2018-05-02T12:36:28.127Z,91727.62
2018-05-02T12:39:12.511Z,91721.44
2018-05-02T12:41:42.416Z,91718.27
2018-05-02T12:44:08.703Z,91726.60
2018-05-02T12:46:35.158Z,91718.98
2018-05-02T12:49:19.495Z,91722.25
2018-05-02T12:51:45.905Z,91723.86
2018-05-02T12:54:12.234Z,91727.25
2018-05-02T12:56:38.536Z,91726.48
2018-05-02T12:59:04.783Z,91721.52
2018-05-02T13:01:31.131Z,91713.02
2018-05-02T13:04:00.603Z,91712.62
2018-05-02T13:06:26.893Z,91705.91
2018-05-02T13:08:53.149Z,91704.36
2018-05-02T13:11:22.665Z,91700.65
2018-05-02T13:13:48.963Z,91699.89
2018-05-02T13:16:15.224Z,91694.93
2018-05-02T13:18:41.523Z,91697.23
2018-05-02T13:21:07.893Z,91697.28
2018-05-02T13:23:34.217Z,91691.56
2018-05-02T13:26:03.648Z,91694.34
2018-05-02T13:28:29.967Z,91687.98
2018-05-02T13:30:56.249Z,91694.36
2018-05-02T13:33:25.792Z,91699.78
2018-05-02T13:35:52.055Z,91694.25
2018-05-02T13:38:18.309Z,91694.70
2018-05-02T13:40:44.622Z,91687.70
2018-05-02T13:43:10.885Z,91695.17
2018-05-02T13:45:37.164Z,91686.81
2018-05-02T13:48:03.784Z,91694.02
2018-05-02T13:50:30.036Z,91685.80
2018-05-02T13:52:56.295Z,91688.23
2018-05-02T13:55:22.610Z,91675.33
2018-05-02T13:57:48.874Z,91676.45
2018-05-02T14:00:15.433Z,91668.28
2018-05-02T14:02:41.740Z,91665.87
2018-05-02T14:05:08.014Z,91675.39
2018-05-02T14:07:34.276Z,91675.03
2018-05-02T14:10:03.833Z,91677.44
2018-05-02T14:12:30.121Z,91676.97
2018-05-02T14:15:18.328Z,91666.05
2018-05-02T14:18:02.855Z,91682.88
2018-05-02T14:20:32.363Z,91701.23
2018-05-02T14:23:17.790Z,91708.67
2018-05-02T14:25:47.866Z,91709.03
2018-05-02T14:28:14.159Z,91720.70
2018-05-02T14:30:40.443Z,91732.64
2018-05-02T14:33:09.933Z,91741.30
2018-05-02T14:35:36.210Z,91754.02
2018-05-02T14:38:02.539Z,91746.48
2018-05-02T14:40:28.813Z,91754.31
2018-05-02T14:42:55.074Z,91750.83
2018-05-02T14:45:21.550Z,91749.44
2018-05-02T14:47:50.982Z,91763.19
2018-05-02T14:50:17.243Z,91756.30
2018-05-02T14:52:43.566Z,91769.43
2018-05-02T14:55:13.054Z,91762.66
2018-05-02T14:57:39.321Z,91761.52
2018-05-02T15:00:05.615Z,91773.22
2018-05-02T15:02:34.949Z,91772.48
2018-05-02T15:05:01.213Z,91783.43
2018-05-02T15:07:27.532Z,91793.96
2018-05-02T15:09:57.187Z,91791.06
2018-05-02T15:12:23.480Z,91804.33
2018-05-02T15:14:49.775Z,91815.37
2018-05-02T15:17:17.761Z,91822.52
2018-05-02T15:19:44.031Z,91836.67
2018-05-02T15:22:10.392Z,91837.89
2018-05-02T15:24:36.727Z,91843.16
2018-05-02T15:27:04.391Z,91843.90
2018-05-02T15:29:30.669Z,91844.53
2018-05-02T15:32:00.071Z,91842.47
2018-05-02T15:34:26.422Z,91843.04
2018-05-02T15:36:52.733Z,91854.91
2018-05-02T15:39:22.379Z,91858.61
2018-05-02T15:41:48.652Z,91858.92
2018-05-02T15:44:14.914Z,91871.52
2018-05-02T15:46:44.252Z,91871.08
2018-05-02T15:49:10.519Z,91868.73
2018-05-02T15:51:36.823Z,91875.80
2018-05-02T15:54:06.347Z,91871.42
2018-05-02T15:56:32.640Z,91880.12
2018-05-02T15:58:58.937Z,91876.54
2018-05-02T16:01:25.258Z,91875.12
2018-05-02T16:03:51.527Z,91877.23
2018-05-02T16:06:17.840Z,91883.59
2018-05-02T16:08:47.267Z,91888.66
2018-05-02T16:11:13.561Z,91882.36
2018-05-02T16:13:39.839Z,91879.52
2018-05-02T16:16:09.351Z,91886.20
2018-05-02T16:18:38.963Z,91897.52
2018-05-02T16:21:05.358Z,91896.34
2018-05-02T16:23:34.765Z,91902.12
2018-05-02T16:26:01.168Z,91896.42
2018-05-02T16:28:30.830Z,91902.80
2018-05-02T16:30:57.171Z,91901.33
2018-05-02T16:33:23.429Z,91900.68
2018-05-02T16:35:49.702Z,91899.02
2018-05-02T16:38:19.084Z,91898.59
2018-05-02T16:40:45.353Z,91902.94
2018-05-02T16:43:11.652Z,91910.08
2018-05-02T16:45:41.280Z,91907.92
2018-05-02T16:48:07.548Z,91908.24
2018-05-02T16:50:33.878Z,91904.55
2018-05-02T16:53:03.343Z,91890.05
2018-05-02T16:55:33.809Z,91888.02
2018-05-02T16:58:00.086Z,91888.70
2018-05-02T17:00:29.570Z,91884.77
2018-05-02T17:02:55.826Z,91885.45
2018-05-02T17:05:22.210Z,91875.96
2018-05-02T17:07:48.540Z,91874.47
2018-05-02T17:10:14.829Z,91870.52
2018-05-02T17:12:41.099Z,91868.90
2018-05-02T17:15:07.390Z,91868.76
2018-05-02T17:17:33.638Z,91866.04
2018-05-02T17:19:59.952Z,91860.61
2018-05-02T17:22:26.316Z,91851.33
2018-05-02T17:24:52.622Z,91852.90
2018-05-02T17:27:18.903Z,91844.53
2018-05-02T17:29:51.831Z,91850.72
2018-05-02T17:32:21.153Z,91849.86
2018-05-02T17:34:50.707Z,91850.27
2018-05-02T17:37:20.077Z,91854.19
2018-05-02T17:39:46.440Z,91856.84
2018-05-02T17:42:12.715Z,91846.70
2018-05-02T17:44:39.091Z,91845.34
2018-05-02T17:47:05.435Z,91845.09
2018-05-02T17:49:31.709Z,91840.06
2018-05-02T17:51:58.024Z,91843.78
2018-05-02T17:54:24.323Z,91843.47
2018-05-02T17:56:50.609Z,91851.23
2018-05-02T17:59:17.264Z,91853.19
2018-05-02T18:01:43.548Z,91846.88
2018-05-02T18:04:09.897Z,91851.64
2018-05-02T18:06:36.288Z,91859.77
2018-05-02T18:09:02.682Z,91857.34
2018-05-02T18:11:29.103Z,91868.08
2018-05-02T18:14:01.425Z,91867.38
2018-05-02T18:16:31.040Z,91871.53
2018-05-02T18:18:57.322Z,91878.79
2018-05-02T18:21:23.656Z,91876.23
2018-05-02T18:23:49.964Z,91879.03
2018-05-02T18:26:16.277Z,91884.25
2018-05-02T18:28:42.649Z,91885.19
2018-05-02T18:31:12.376Z,91892.91
2018-05-02T18:33:38.650Z,91889.28
2018-05-02T18:36:04.966Z,91891.01
2018-05-02T18:38:31.303Z,91896.21
2018-05-02T18:40:57.581Z,91901.61
2018-05-02T18:43:26.949Z,91898.05
2018-05-02T18:45:53.259Z,91899.50
2018-05-02T18:48:19.542Z,91899.02
2018-05-02T18:50:49.140Z,91907.46
2018-05-02T18:53:15.437Z,91903.84
2018-05-02T18:55:41.915Z,91905.91
2018-05-02T18:58:11.428Z,91908.56
2018-05-02T19:00:37.699Z,91908.38
2018-05-02T19:03:03.988Z,91913.37
2018-05-02T19:05:36.838Z,91918.12
2018-05-02T19:08:03.124Z,91916.54
2018-05-02T19:10:29.397Z,91921.19
2018-05-02T19:12:58.903Z,91931.27
2018-05-02T19:15:25.166Z,91927.23
2018-05-02T19:17:57.530Z,91924.56
2018-05-02T19:20:29.821Z,91919.03
2018-05-02T19:22:56.148Z,91915.75
2018-05-02T19:25:28.413Z,91923.63
2018-05-02T19:27:58.418Z,91927.69
2018-05-02T19:30:27.864Z,91926.09
2018-05-02T19:33:06.613Z,91923.17
2018-05-02T19:35:32.888Z,91922.28
2018-05-02T19:37:59.205Z,91924.52
2018-05-02T19:40:31.472Z,91923.58
2018-05-02T19:43:03.722Z,91932.02
2018-05-02T19:45:30.244Z,91933.94
2018-05-02T19:47:56.560Z,91928.28
2018-05-02T19:50:22.859Z,91931.64
2018-05-02T19:52:50.017Z,91934.44
2018-05-02T19:55:22.538Z,91942.95
2018-05-02T19:57:48.843Z,91933.51
2018-05-02T20:00:21.026Z,91930.27
2018-05-02T20:02:56.556Z,91930.36
2018-05-02T20:05:22.830Z,91931.27
2018-05-02T20:07:49.260Z,91928.76
2018-05-02T20:10:34.327Z,91932.48
2018-05-02T20:13:12.800Z,91944.25
2018-05-02T20:15:48.342Z,91935.55
2018-05-02T20:18:20.627Z,91935.33
2018-05-02T20:20:56.114Z,91929.81
2018-05-02T20:23:28.432Z,91926.48
2018-05-02T20:26:00.900Z,91928.81
2018-05-02T20:28:33.342Z,91926.18
2018-05-02T20:31:08.670Z,91924.80
2018-05-02T20:33:44.373Z,91929.33
2018-05-02T20:36:19.867Z,91934.57
2018-05-02T20:38:52.331Z,91935.78
2018-05-02T20:41:24.922Z,91929.69
2018-05-02T20:44:03.057Z,91933.64
2018-05-02T20:46:35.264Z,91932.99
2018-05-02T20:49:08.447Z,91927.92
2018-05-02T20:51:41.030Z,91921.82
2018-05-02T20:54:13.769Z,91922.43
2018-05-02T20:56:46.538Z,91929.05
2018-05-02T20:59:19.698Z,91931.80
2018-05-02T21:01:55.597Z,91932.57
2018-05-02T21:04:27.919Z,91933.52
2018-05-02T21:07:00.448Z,91932.36
2018-05-02T21:09:32.786Z,91933.41
2018-05-02T21:12:05.364Z,91931.84
2018-05-02T21:14:37.625Z,91940.64
2018-05-02T21:17:09.927Z,91937.77
2018-05-02T21:19:42.149Z,91942.95
2018-05-02T21:22:17.650Z,91940.80
2018-05-02T21:24:52.682Z,91941.70
2018-05-02T21:27:28.223Z,91941.03
2018-05-02T21:30:00.499Z,91938.77
2018-05-02T21:32:32.707Z,91946.27
2018-05-02T21:35:06.054Z,91939.86
2018-05-02T21:37:38.348Z,91939.22
2018-05-02T21:40:10.697Z,91935.75
2018-05-02T21:42:43.151Z,91937.09
2018-05-02T21:45:15.563Z,91941.34
2018-05-02T21:47:51.231Z,91948.69
2018-05-02T21:50:23.579Z,91939.63
2018-05-02T21:52:55.954Z,91939.50
2018-05-02T21:55:28.424Z,91938.72
2018-05-02T21:58:00.841Z,91934.97
2018-05-02T22:00:33.286Z,91940.98
2018-05-02T22:03:08.806Z,91941.30
2018-05-02T22:05:41.266Z,91943.05
2018-05-02T22:08:16.914Z,91937.37
2018-05-02T22:10:49.381Z,91933.05
2018-05-02T22:13:21.866Z,91939.78
2018-05-02T22:15:54.326Z,91945.55
2018-05-02T22:18:29.653Z,91941.09
2018-05-02T22:21:01.950Z,91942.41
2018-05-02T22:23:37.307Z,91946.02
2018-05-02T22:26:09.599Z,91951.42
2018-05-02T22:28:45.132Z,91958.14
2018-05-02T22:31:20.751Z,91952.27
2018-05-02T22:33:56.088Z,91956.50
2018-05-02T22:36:28.893Z,91946.88
2018-05-02T22:39:01.256Z,91938.27
2018-05-02T22:41:33.445Z,91943.16
2018-05-02T22:44:08.883Z,91936.94
2018-05-02T22:46:41.290Z,91941.05
2018-05-02T22:49:16.703Z,91931.23
2018-05-02T22:51:49.065Z,91928.53
2018-05-02T22:54:24.526Z,91923.58
2018-05-02T22:56:57.019Z,91931.61
2018-05-02T22:59:29.477Z,91923.23
2018-05-02T23:02:01.955Z,91926.38
2018-05-02T23:04:34.197Z,91923.97
2018-05-02T23:07:06.420Z,91918.83
2018-05-02T23:09:38.766Z,91917.38
2018-05-02T23:12:10.983Z,91911.20
2018-05-02T23:14:46.585Z,91910.75
2018-05-02T23:17:19.039Z,91914.73
2018-05-02T23:19:54.700Z,91917.70
2018-05-02T23:22:27.138Z,91908.58
2018-05-02T23:24:59.555Z,91906.11
2018-05-02T23:27:32.015Z,91904.53
2018-05-02T23:30:08.187Z,91904.48
2018-05-02T23:32:40.539Z,91905.84
2018-05-02T23:35:19.081Z,91907.90
2018-05-02T23:37:53.529Z,91902.19
2018-05-02T23:40:25.798Z,91896.91
2018-05-02T23:42:58.000Z,91894.91
2018-05-02T23:45:30.339Z,91891.06
2018-05-02T23:48:02.763Z,91891.64
2018-05-02T23:50:38.147Z,91898.11
2018-05-02T23:53:10.591Z,91892.06
2018-05-02T23:55:46.050Z,91889.83
2018-05-02T23:58:18.368Z,91884.16
